EGGDHESH

Guest
Details From EGGD - Bristol International
To HESH - SHARM EL SHEIKH INTL
Flight Number -
Tags decoded
Created
Modified
Stats Distance 2,179 nm / 4,036 km
Max Altitude 0 ft / 0 m
Waypoints 2
Social Downloads 0
Likes 0
Share VATSIM

Download

Looking for another format? Having issues loading an existing format? Contact us
Advertisement - Login to hide

Notes

Requested: EGGD HESH

Route

EGGD HESH

ID Type Via Altitude Latitude Longitude Leg Dist Tot Dist Heading (true) Name
O EGGD APT - 0 ft / 0 m 51.38266˚ -2.71892˚ - 0 nm - Bristol International
O HESH APT - 0 ft / 0 m 27.97732˚ 34.39495˚ 2179 nm 2179 nm 116° / 140° SHARM EL SHEIKH INTL

Altitude Profile

Advertisement - Login to hide

Weather


0- 5 10 15 20 25 30 35+ Temperature / ° C

Clouds and Precipitation
Forecast for 2018-05-24 12:00 UTC. Updated 5 hours ago

Ground ~20,000 ft ~40,000 ft Winds

EGGD

Details ICAO EGGD (BRS)
Name Bristol International
Region United Kingdom
Timezone Europe/London (UTC+1.0)
Stats Elevation 622 ft / 190 m (AMSL)
Location 51.382658° -2.718918°
Runways 1
Magnetic Variation 1.284° W

METAR

EGGD 241620Z AUTO 06009KT 5000 -RA BKN008/// //////CB 13/13 Q1019

Decode

TAF

TAF EGGD 241108Z 2412/2512 05010KT 8000 BKN008 BECMG 2412/2415 9999 BKN015 TEMPO 2412/2512 4000 SHRA BR BKN009 PROB30 TEMPO 2417/2503 +SHRA PROB40 TEMPO 2419/2506 BKN004

Decode

Departure Runways

ID Width Length Bearing (true) Bearing (mag) Surface Threshold Offset Overrun Length
09 148 ft / 45 m 6,655 ft / 2,029 m 86.42° 87.70° Asphalt 0 ft / 0 m 0 ft / 0 m
27 148 ft / 45 m 6,655 ft / 2,029 m 266.44° 267.72° Asphalt 499 ft / 152 m 0 ft / 0 m

HESH

Details ICAO HESH (SSH)
Name SHARM EL SHEIKH INTL
Region Egypt
Timezone Africa/Cairo (UTC+2.0)
Stats Elevation 143 ft / 44 m (AMSL)
Location 27.977318° 34.394945°
Runways 2
Magnetic Variation 4.316° E

METAR

HESH 241600Z 36014KT CAVOK 36/03 Q1007 NOSIG

Decode

TAF

Not found

Destination Runways

ID Width Length Bearing (true) Bearing (mag) Surface Threshold Offset Overrun Length
04L 148 ft / 45 m 10,120 ft / 3,085 m 42.65° 38.33° Asphalt 0 ft / 0 m 200 ft / 61 m
04R 148 ft / 45 m 10,121 ft / 3,085 m 42.65° 38.33° Asphalt 0 ft / 0 m 200 ft / 61 m
22L 148 ft / 45 m 10,121 ft / 3,085 m 222.66° 218.34° Asphalt 0 ft / 0 m 200 ft / 61 m
22R 148 ft / 45 m 10,120 ft / 3,085 m 222.66° 218.34° Asphalt 0 ft / 0 m 200 ft / 61 m

Approach Navaids

Runway Type Ident Frequency Range Bearing (true) Bearing (mag) Slope Elevation
04L Localiser KIL 109.50 MHz 18 nm / 33 km 42.67° 38.36° - 130 ft / 40 m (AMSL)
04L Glidescope KIL 109.50 MHz 10 nm / 19 km 42.65° 38.34° 3.00° 160 ft / 49 m (AMSL)
04L DME KIL 109.50 MHz 18 nm / 33 km - - - 160 ft / 49 m (AMSL)

Popular Alternatives